Time;durP1;ratioP1;P1;durP2;ratioP2;P2;SDS_P1;SDS_P2;PMS_P1;PMS_P2;Temp;Humidity;BMP_temperature;BMP_pressure;BME280_temperature;BME280_humidity;BME280_pressure;Samples;Min_cycle;Max_cycle;Signal;HPM_P1;HPM_P2
2022/05/19 00:02:12;;;;;;;3.78;0.95;;;12.40;84.60;;;;;;5035675;28;19951;-72
2022/05/19 00:04:41;;;;;;;2.55;0.80;;;12.30;85.00;;;;;;5038427;28;20455;-72
2022/05/19 00:07:09;;;;;;;1.60;0.70;;;12.30;86.20;;;;;;5039096;28;20140;-72
2022/05/19 00:09:37;;;;;;;3.92;0.82;;;12.30;86.70;;;;;;5040677;28;20033;-72
2022/05/19 00:12:08;;;;;;;4.97;0.80;;;12.30;86.80;;;;;;5038386;28;20438;-72
2022/05/19 00:14:35;;;;;;;20.52;1.38;;;12.30;87.00;;;;;;5036956;28;20109;-73
2022/05/19 00:17:03;;;;;;;2.58;0.82;;;12.30;85.40;;;;;;5039834;28;20103;-72
2022/05/19 00:19:31;;;;;;;3.55;0.85;;;12.30;85.60;;;;;;5054285;28;20051;-72
2022/05/19 00:21:58;;;;;;;3.42;0.70;;;12.20;85.90;;;;;;5037078;28;20041;-72
2022/05/19 00:24:28;;;;;;;2.13;0.57;;;12.10;85.00;;;;;;5038087;28;20049;-72
2022/05/19 00:26:57;;;;;;;8.43;1.00;;;12.10;84.10;;;;;;5040182;28;20842;-72
2022/05/19 00:29:24;;;;;;;2.78;0.88;;;12.10;84.20;;;;;;5040036;28;20492;-72
2022/05/19 00:31:52;;;;;;;3.95;0.95;;;12.10;84.80;;;;;;5039667;28;20044;-72
2022/05/19 00:34:19;;;;;;;1.65;0.82;;;12.00;86.20;;;;;;5037704;28;20670;-72
2022/05/19 00:36:48;;;;;;;3.15;1.08;;;12.10;87.20;;;;;;5054698;28;20045;-72
2022/05/19 00:39:15;;;;;;;2.17;0.80;;;12.00;88.70;;;;;;5055653;28;20045;-72
2022/05/19 00:41:44;;;;;;;3.30;0.63;;;12.00;85.30;;;;;;5036836;28;20040;-72
2022/05/19 00:44:12;;;;;;;3.95;0.75;;;12.00;85.60;;;;;;5052488;28;20044;-72
2022/05/19 00:46:49;;;;;;;3.63;1.17;;;11.90;85.40;;;;;;5036235;28;20049;-72
2022/05/19 00:49:30;;;;;;;6.00;0.82;;;11.90;86.80;;;;;;5039426;28;20391;-72
2022/05/19 00:52:23;;;;;;;3.00;0.73;;;11.90;86.90;;;;;;5036953;28;20476;-72
2022/05/19 00:55:02;;;;;;;3.42;1.05;;;11.80;87.90;;;;;;5031143;28;20049;-72
2022/05/19 00:57:32;;;;;;;2.17;0.70;;;11.80;87.60;;;;;;5040660;28;20049;-72
2022/05/19 01:00:09;;;;;;;3.63;0.90;;;11.70;86.40;;;;;;5039739;28;20084;-72
2022/05/19 01:02:40;;;;;;;1.98;0.60;;;11.70;85.10;;;;;;5042544;28;20051;-72
2022/05/19 01:05:30;;;;;;;3.05;0.80;;;11.80;86.20;;;;;;5038233;28;20583;-72
2022/05/19 01:08:09;;;;;;;3.88;0.60;;;11.70;86.30;;;;;;5072437;28;20056;-72
2022/05/19 01:10:37;;;;;;;3.25;0.63;;;11.80;86.20;;;;;;5070129;28;20179;-72
2022/05/19 01:13:05;;;;;;;2.35;0.68;;;11.70;85.00;;;;;;5056495;28;20053;-72
2022/05/19 01:15:40;;;;;;;4.57;1.23;;;11.60;85.50;;;;;;5024239;28;20044;-73
2022/05/19 01:18:11;;;;;;;3.05;0.73;;;11.60;84.90;;;;;;5041848;28;20132;-73
2022/05/19 01:20:38;;;;;;;2.35;0.60;;;11.60;84.80;;;;;;5040331;28;20038;-72
2022/05/19 01:23:31;;;;;;;1.85;0.93;;;11.60;83.10;;;;;;5039907;28;20446;-72
2022/05/19 01:26:43;;;;;;;3.45;0.93;;;11.50;83.10;;;;;;5043450;28;20504;-72
2022/05/19 01:29:13;;;;;;;3.17;0.70;;;11.50;83.80;;;;;;5037510;28;20128;-72
2022/05/19 01:31:50;;;;;;;1.67;0.80;;;11.50;84.80;;;;;;5040818;28;20776;-71
2022/05/19 01:34:20;;;;;;;2.92;0.73;;;11.40;84.80;;;;;;5070245;28;20049;-72
2022/05/19 01:36:48;;;;;;;1.67;0.43;;;11.40;86.10;;;;;;5039759;28;20133;-72
2022/05/19 01:39:21;;;;;;;4.50;1.00;;;11.40;86.00;;;;;;5041750;28;20960;-72
2022/05/19 01:42:12;;;;;;;3.25;1.00;;;11.40;85.20;;;;;;5040639;28;20037;-72
2022/05/19 01:44:46;;;;;;;4.38;1.35;;;11.30;85.30;;;;;;5041948;28;20098;-72
2022/05/19 01:47:45;;;;;;;2.90;1.02;;;11.30;84.00;;;;;;5037803;28;20037;-72
2022/05/19 01:50:41;;;;;;;3.63;1.25;;;11.30;85.50;;;;;;5039883;28;20160;-72
2022/05/19 01:53:31;;;;;;;4.88;1.58;;;11.20;85.40;;;;;;5037327;28;20070;-72
2022/05/19 01:56:01;;;;;;;3.33;1.55;;;11.20;87.00;;;;;;5035362;28;20401;-72
2022/05/19 01:58:34;;;;;;;5.03;1.48;;;11.20;85.90;;;;;;5053835;28;20044;-72
2022/05/19 02:01:05;;;;;;;3.70;1.55;;;11.10;88.20;;;;;;5040957;28;20416;-72
2022/05/19 02:03:51;;;;;;;4.03;1.60;;;11.10;85.90;;;;;;5041757;28;20047;-72
2022/05/19 02:06:27;;;;;;;3.00;1.25;;;11.10;87.70;;;;;;5038296;28;20053;-72
2022/05/19 02:09:05;;;;;;;4.35;1.75;;;11.00;87.10;;;;;;5041519;28;20037;-72
2022/05/19 02:11:50;;;;;;;5.55;2.10;;;11.00;86.10;;;;;;5056334;28;20045;-72
2022/05/19 02:14:29;;;;;;;4.47;1.55;;;11.00;87.50;;;;;;5072117;28;20647;-72
2022/05/19 02:16:58;;;;;;;4.43;1.58;;;10.90;86.80;;;;;;5039638;28;20064;-72
2022/05/19 02:19:30;;;;;;;4.32;1.60;;;10.90;87.00;;;;;;5035780;28;20037;-72
2022/05/19 02:21:58;;;;;;;4.88;1.70;;;10.90;86.80;;;;;;5037738;28;20045;-72
2022/05/19 02:24:26;;;;;;;4.82;2.17;;;11.00;86.20;;;;;;5040512;28;20033;-72
2022/05/19 02:26:53;;;;;;;5.55;1.70;;;10.90;86.00;;;;;;5037654;28;20073;-72
2022/05/19 02:29:23;;;;;;;3.75;1.73;;;10.90;86.60;;;;;;5038315;28;20044;-71
2022/05/19 02:31:51;;;;;;;3.83;1.42;;;10.90;87.40;;;;;;5039237;28;20071;-72
2022/05/19 02:34:18;;;;;;;4.97;1.52;;;10.90;87.20;;;;;;5038674;28;20051;-72
2022/05/19 02:36:47;;;;;;;7.35;2.20;;;10.90;87.00;;;;;;5036412;28;20047;-72
2022/05/19 02:39:14;;;;;;;7.15;2.10;;;10.70;84.80;;;;;;5037867;28;20047;-72
2022/05/19 02:41:41;;;;;;;9.57;2.22;;;10.70;84.70;;;;;;5041770;28;20605;-72
2022/05/19 02:44:08;;;;;;;6.20;2.28;;;10.70;84.90;;;;;;5038310;28;20048;-72
2022/05/19 02:46:35;;;;;;;5.65;2.17;;;10.70;86.00;;;;;;5035011;28;20072;-72
2022/05/19 02:49:03;;;;;;;5.28;2.28;;;10.80;86.90;;;;;;5034790;28;20041;-72
2022/05/19 02:51:30;;;;;;;8.80;3.13;;;10.80;87.20;;;;;;5038790;28;20043;-72
2022/05/19 02:53:58;;;;;;;5.82;2.20;;;10.70;85.60;;;;;;5054853;28;20067;-72
2022/05/19 02:56:25;;;;;;;6.65;2.55;;;10.60;85.90;;;;;;5053995;28;20041;-72
2022/05/19 02:58:52;;;;;;;7.63;2.17;;;10.60;85.70;;;;;;5054468;28;20057;-72
2022/05/19 03:01:20;;;;;;;5.28;2.08;;;10.60;85.20;;;;;;5053635;28;20045;-71
2022/05/19 03:03:48;;;;;;;9.00;4.15;;;10.60;86.60;;;;;;5040714;28;20055;-72
2022/05/19 03:06:15;;;;;;;7.50;2.78;;;10.60;85.50;;;;;;5037267;28;20077;-71
2022/05/19 03:08:42;;;;;;;6.07;2.42;;;10.50;85.50;;;;;;5037135;28;20044;-72
2022/05/19 03:11:09;;;;;;;6.43;2.45;;;10.50;86.40;;;;;;5049376;28;20051;-72
2022/05/19 03:13:36;;;;;;;6.68;2.72;;;10.50;86.00;;;;;;5052533;28;20033;-71
2022/05/19 03:16:08;;;;;;;7.72;3.13;;;10.50;85.60;;;;;;5037093;28;20041;-72
2022/05/19 03:18:35;;;;;;;7.68;2.47;;;10.50;86.90;;;;;;5032866;28;20403;-72
2022/05/19 03:21:02;;;;;;;8.10;2.33;;;10.50;87.80;;;;;;5037145;28;20055;-71
2022/05/19 03:23:29;;;;;;;8.70;3.78;;;10.40;87.00;;;;;;5039519;28;20056;-71
2022/05/19 03:25:56;;;;;;;10.32;3.25;;;10.40;87.00;;;;;;5039954;28;20045;-72
2022/05/19 03:28:23;;;;;;;9.63;2.83;;;10.50;87.70;;;;;;5035219;28;20041;-71
2022/05/19 03:30:51;;;;;;;6.45;2.92;;;10.50;88.00;;;;;;5037597;28;20033;-72
2022/05/19 03:33:18;;;;;;;6.70;2.83;;;10.50;88.40;;;;;;5022317;28;20055;-72
2022/05/19 03:35:45;;;;;;;8.75;3.10;;;10.50;89.40;;;;;;5037069;28;20052;-72
2022/05/19 03:38:12;;;;;;;8.48;3.85;;;10.50;89.40;;;;;;5038607;28;20132;-71
2022/05/19 03:40:39;;;;;;;8.43;3.20;;;10.50;90.50;;;;;;5068983;28;20060;-72
2022/05/19 03:43:06;;;;;;;7.97;3.28;;;10.60;90.70;;;;;;5053562;28;20098;-72
2022/05/19 03:45:42;;;;;;;9.07;2.97;;;10.50;91.00;;;;;;5039630;28;20041;-71
2022/05/19 03:48:10;;;;;;;9.15;3.03;;;10.60;90.90;;;;;;5017220;28;20898;-71
2022/05/19 03:50:38;;;;;;;9.10;3.25;;;10.60;91.30;;;;;;5037455;28;20037;-72
2022/05/19 03:53:05;;;;;;;7.88;2.90;;;10.60;91.20;;;;;;5038618;28;20501;-72
2022/05/19 03:55:32;;;;;;;5.63;3.00;;;10.70;91.20;;;;;;5035354;28;20032;-72
2022/05/19 03:57:59;;;;;;;10.68;3.88;;;10.80;91.10;;;;;;5035902;28;20048;-72
2022/05/19 04:00:26;;;;;;;8.93;3.03;;;10.80;91.20;;;;;;5034518;28;20150;-72
2022/05/19 04:02:54;;;;;;;6.78;3.35;;;10.90;90.90;;;;;;5035676;28;20068;-72
2022/05/19 04:05:27;;;;;;;11.50;3.72;;;11.00;91.30;;;;;;5035863;28;20065;-72
2022/05/19 04:07:54;;;;;;;11.60;3.88;;;11.00;90.50;;;;;;5039320;28;20041;-72
2022/05/19 04:10:22;;;;;;;11.93;3.63;;;11.10;89.90;;;;;;5039516;28;20032;-72
2022/05/19 04:12:49;;;;;;;9.10;3.40;;;11.10;87.20;;;;;;5039936;28;20091;-72
2022/05/19 04:15:17;;;;;;;7.05;2.53;;;11.20;84.20;;;;;;5039690;28;20389;-72
2022/05/19 04:17:44;;;;;;;9.07;3.78;;;11.20;86.30;;;;;;5055036;28;20044;-72
2022/05/19 04:20:12;;;;;;;10.02;3.75;;;11.30;85.50;;;;;;5038410;28;20422;-72
2022/05/19 04:22:39;;;;;;;10.23;3.80;;;11.40;82.20;;;;;;5023459;28;20040;-72
2022/05/19 04:25:08;;;;;;;9.93;3.65;;;11.50;81.00;;;;;;5051332;28;20128;-72
2022/05/19 04:27:35;;;;;;;8.50;3.42;;;11.50;80.20;;;;;;5039435;28;20044;-73
2022/05/19 04:30:03;;;;;;;9.10;3.45;;;11.60;81.30;;;;;;5052846;28;20127;-72
2022/05/19 04:32:37;;;;;;;8.65;3.40;;;11.60;79.20;;;;;;5037729;28;20044;-72
2022/05/19 04:35:04;;;;;;;10.07;3.20;;;11.70;82.10;;;;;;5037765;28;20144;-72
2022/05/19 04:37:31;;;;;;;7.78;3.55;;;11.70;82.50;;;;;;5038342;28;20041;-72
2022/05/19 04:40:04;;;;;;;6.18;2.65;;;11.80;80.90;;;;;;5035830;28;20060;-72
2022/05/19 04:42:31;;;;;;;6.55;2.30;;;11.80;75.40;;;;;;5055473;28;20052;-72
2022/05/19 04:44:59;;;;;;;4.82;1.95;;;11.90;75.60;;;;;;5037964;28;20053;-72
2022/05/19 04:47:27;;;;;;;7.70;2.05;;;12.00;76.00;;;;;;5035716;28;20564;-72
2022/05/19 04:49:54;;;;;;;6.13;1.63;;;12.00;75.10;;;;;;5035735;28;20052;-72
2022/05/19 04:52:22;;;;;;;6.65;1.95;;;12.10;72.40;;;;;;5022728;28;20438;-72
2022/05/19 04:54:49;;;;;;;4.65;1.20;;;12.20;73.90;;;;;;5039394;28;20038;-72
2022/05/19 04:57:16;;;;;;;5.13;1.90;;;12.30;75.60;;;;;;5039882;28;20634;-72
2022/05/19 04:59:43;;;;;;;6.18;2.00;;;12.30;71.10;;;;;;5035097;28;20057;-72
2022/05/19 05:02:11;;;;;;;5.90;1.67;;;12.40;74.80;;;;;;5030599;28;20060;-72
2022/05/19 05:04:39;;;;;;;4.38;1.55;;;12.60;72.30;;;;;;5008407;28;20059;-72
2022/05/19 05:07:06;;;;;;;6.68;1.73;;;12.70;73.50;;;;;;5006353;28;22418;-72
2022/05/19 05:09:34;;;;;;;6.28;1.83;;;12.80;73.70;;;;;;5010417;28;20053;-75
2022/05/19 05:12:02;;;;;;;3.28;1.55;;;13.00;73.40;;;;;;5024251;28;20053;-72
2022/05/19 05:14:29;;;;;;;5.35;1.80;;;13.20;71.30;;;;;;5002955;28;20049;-72
2022/05/19 05:16:57;;;;;;;5.95;2.03;;;13.30;72.70;;;;;;5007719;28;20044;-72
2022/05/19 05:19:24;;;;;;;3.35;1.27;;;13.40;70.80;;;;;;5010044;28;20171;-72
2022/05/19 05:21:57;;;;;;;2.80;1.60;;;13.60;66.50;;;;;;5015228;28;22458;-72
2022/05/19 05:24:25;;;;;;;4.20;1.60;;;13.70;66.50;;;;;;5009984;28;20151;-72
2022/05/19 05:26:52;;;;;;;4.78;1.55;;;13.90;68.90;;;;;;5008900;28;22377;-72
2022/05/19 05:29:20;;;;;;;4.00;1.50;;;14.10;67.40;;;;;;5027391;28;20195;-73
2022/05/19 05:31:48;;;;;;;9.77;1.80;;;14.20;67.90;;;;;;5011000;28;20054;-73
2022/05/19 05:34:15;;;;;;;4.30;1.38;;;14.30;67.10;;;;;;5010237;28;20503;-73
2022/05/19 05:36:42;;;;;;;5.28;2.10;;;14.50;67.30;;;;;;5010150;28;22468;-72
2022/05/19 05:39:09;;;;;;;4.72;1.60;;;14.60;65.30;;;;;;5033073;28;20048;-73
2022/05/19 05:41:39;;;;;;;5.85;1.90;;;14.70;65.60;;;;;;5015127;28;20037;-72
2022/05/19 05:44:06;;;;;;;5.72;1.80;;;14.90;64.60;;;;;;5023424;28;20045;-72
2022/05/19 05:46:34;;;;;;;4.72;1.60;;;14.90;67.10;;;;;;5012247;28;20063;-72
2022/05/19 05:49:01;;;;;;;6.78;2.13;;;15.00;64.90;;;;;;5010222;28;20048;-72
2022/05/19 05:51:33;;;;;;;3.38;1.75;;;15.10;69.50;;;;;;5009435;28;20043;-72
2022/05/19 05:54:00;;;;;;;7.53;1.90;;;15.30;67.20;;;;;;5012076;28;20123;-73
2022/05/19 05:56:27;;;;;;;5.50;1.80;;;15.40;67.60;;;;;;5014232;28;20703;-72
2022/05/19 05:58:54;;;;;;;6.18;1.70;;;15.40;69.50;;;;;;5026827;28;20508;-72
2022/05/19 06:01:22;;;;;;;5.78;1.77;;;15.60;71.00;;;;;;5003902;28;20053;-72
2022/05/19 06:03:49;;;;;;;4.07;1.70;;;15.70;68.00;;;;;;4992861;28;23781;-73
2022/05/19 06:06:17;;;;;;;6.25;1.65;;;15.90;67.90;;;;;;5020791;28;20067;-73
2022/05/19 06:08:45;;;;;;;5.95;2.10;;;15.90;65.20;;;;;;5021438;28;20048;-73
2022/05/19 06:11:13;;;;;;;6.70;2.53;;;16.00;66.90;;;;;;5018610;28;22389;-72
2022/05/19 06:13:41;;;;;;;6.82;2.45;;;16.20;69.30;;;;;;5011639;28;20040;-73
2022/05/19 06:16:08;;;;;;;5.97;2.28;;;16.30;67.10;;;;;;5026820;28;20049;-73
2022/05/19 06:18:35;;;;;;;6.15;1.98;;;16.40;67.70;;;;;;5025118;28;22524;-72
2022/05/19 06:21:03;;;;;;;5.15;2.10;;;16.60;66.60;;;;;;5025267;28;21049;-72
2022/05/19 06:23:32;;;;;;;7.50;2.00;;;16.70;66.60;;;;;;5012884;28;20048;-73
2022/05/19 06:26:01;;;;;;;6.40;2.10;;;16.80;66.40;;;;;;5013963;28;20045;-73
2022/05/19 06:28:28;;;;;;;4.07;1.77;;;16.90;67.50;;;;;;5010804;28;20064;-72
2022/05/19 06:30:56;;;;;;;8.15;2.67;;;17.10;65.10;;;;;;5016010;28;20052;-73
2022/05/19 06:33:23;;;;;;;5.65;2.10;;;17.20;66.00;;;;;;5011745;28;20041;-73
2022/05/19 06:35:50;;;;;;;7.03;2.13;;;17.30;64.00;;;;;;4996336;28;20144;-73
2022/05/19 06:38:18;;;;;;;5.30;2.08;;;17.40;61.50;;;;;;5023052;28;20038;-72
2022/05/19 06:40:47;;;;;;;6.07;2.30;;;17.50;63.30;;;;;;5011110;28;20055;-73
2022/05/19 06:43:24;;;;;;;6.47;1.92;;;17.60;64.60;;;;;;5012390;28;20492;-73
2022/05/19 06:45:52;;;;;;;8.20;2.00;;;17.70;64.30;;;;;;5042730;28;20041;-73
2022/05/19 06:48:19;;;;;;;5.00;2.22;;;17.90;62.60;;;;;;5012615;28;20179;-73
2022/05/19 06:50:46;;;;;;;3.63;1.50;;;17.90;62.40;;;;;;5016147;28;20049;-73
2022/05/19 06:53:30;;;;;;;9.07;2.78;;;18.10;63.50;;;;;;5016698;28;20050;-73
2022/05/19 06:55:56;;;;;;;6.00;2.40;;;18.20;63.90;;;;;;5014589;28;20056;-73
2022/05/19 06:58:23;;;;;;;4.82;1.98;;;18.30;64.10;;;;;;5026297;28;20056;-73
2022/05/19 07:00:50;;;;;;;4.80;1.98;;;18.20;61.30;;;;;;5011227;28;20107;-73
2022/05/19 07:03:17;;;;;;;6.68;1.98;;;18.30;61.80;;;;;;5045500;28;20048;-73
2022/05/19 07:05:45;;;;;;;5.70;1.75;;;18.40;62.10;;;;;;5006685;28;20150;-73
2022/05/19 07:08:13;;;;;;;5.70;2.35;;;18.60;62.10;;;;;;5004306;28;21005;-72
2022/05/19 07:10:41;;;;;;;6.25;2.10;;;18.70;61.60;;;;;;5022813;28;20064;-73
2022/05/19 07:13:08;;;;;;;3.55;1.52;;;18.90;60.70;;;;;;5007309;28;20106;-73
2022/05/19 07:15:36;;;;;;;4.45;1.67;;;19.00;60.70;;;;;;5010024;28;20052;-73
2022/05/19 07:18:04;;;;;;;5.35;1.40;;;19.00;58.70;;;;;;5007761;28;20060;-73
2022/05/19 07:20:44;;;;;;;6.03;2.25;;;19.10;58.30;;;;;;5037796;28;20052;-73
2022/05/19 07:23:21;;;;;;;5.53;2.10;;;19.20;59.20;;;;;;5007097;28;20049;-73
2022/05/19 07:25:48;;;;;;;2.85;1.25;;;19.30;57.20;;;;;;5006542;28;24170;-73
2022/05/19 07:28:17;;;;;;;4.00;1.13;;;19.40;56.70;;;;;;5005788;28;20049;-73
2022/05/19 07:30:46;;;;;;;5.20;1.10;;;19.50;56.80;;;;;;5043417;28;20036;-73
2022/05/19 07:33:15;;;;;;;2.67;1.20;;;19.60;54.30;;;;;;5009346;28;20519;-74
2022/05/19 07:35:46;;;;;;;5.82;0.82;;;19.70;55.30;;;;;;5008413;28;20037;-74
2022/05/19 07:38:15;;;;;;;4.95;0.60;;;19.70;54.30;;;;;;4999620;28;20040;-73
2022/05/19 07:40:43;;;;;;;3.20;1.00;;;19.80;53.40;;;;;;5028473;28;20059;-73
2022/05/19 07:45:57;;;;;;;2.60;0.70;;;20.00;52.40;;;;;;5009476;28;20057;-74
2022/05/19 07:48:25;;;;;;;3.22;0.73;;;20.00;51.50;;;;;;5014880;28;20147;-74
2022/05/19 07:50:53;;;;;;;3.70;0.77;;;20.10;54.20;;;;;;5017184;28;20045;-73
2022/05/19 07:53:22;;;;;;;3.00;0.55;;;20.30;52.20;;;;;;5004890;28;21129;-73
2022/05/19 07:55:49;;;;;;;5.30;0.57;;;20.30;49.70;;;;;;5017852;28;20235;-73
2022/05/19 07:58:16;;;;;;;3.28;0.40;;;20.40;51.20;;;;;;5016305;28;20838;-74
2022/05/19 08:00:44;;;;;;;7.47;1.58;;;20.40;51.40;;;;;;4991396;28;20048;-75
2022/05/19 08:03:11;;;;;;;6.10;0.55;;;20.40;48.00;;;;;;5008120;28;20515;-74
2022/05/19 08:05:39;;;;;;;3.75;0.50;;;20.50;48.90;;;;;;5006732;28;20056;-73
2022/05/19 08:08:06;;;;;;;3.25;0.50;;;20.50;48.30;;;;;;5022140;28;20171;-74
2022/05/19 08:10:33;;;;;;;3.28;0.30;;;20.50;48.30;;;;;;5053663;28;22543;-73
2022/05/19 08:15:52;;;;;;;1.80;0.20;;;20.70;45.20;;;;;;5006308;28;20056;-73
2022/05/19 08:18:23;;;;;;;1.30;0.32;;;20.70;44.60;;;;;;5025082;28;20041;-73
2022/05/19 08:20:57;;;;;;;2.17;0.30;;;20.70;46.00;;;;;;5015208;28;20064;-76
2022/05/19 08:23:33;;;;;;;1.38;0.20;;;20.80;44.90;;;;;;5024818;28;20060;-73
2022/05/19 08:26:01;;;;;;;2.72;0.20;;;20.80;40.20;;;;;;5017550;28;20541;-74
2022/05/19 08:28:35;;;;;;;0.95;0.22;;;20.60;41.90;;;;;;5007769;28;20049;-74
2022/05/19 08:31:14;;;;;;;2.78;0.20;;;20.70;42.60;;;;;;5034597;28;20049;-75
2022/05/19 08:33:44;;;;;;;1.85;0.10;;;20.80;43.40;;;;;;5025661;28;20076;-75
2022/05/19 08:36:12;;;;;;;3.05;0.45;;;20.90;44.20;;;;;;5005352;28;20052;-74
2022/05/19 08:38:41;;;;;;;3.78;0.28;;;21.10;45.80;;;;;;5017012;28;20947;-73
2022/05/19 08:41:35;;;;;;;6.53;0.30;;;21.10;44.50;;;;;;5017482;28;20056;-74
2022/05/19 08:44:10;;;;;;;2.83;0.30;;;21.20;47.90;;;;;;5000434;28;20778;-74
2022/05/19 08:46:43;;;;;;;2.80;0.30;;;21.10;41.30;;;;;;5009265;28;20059;-74
2022/05/19 08:49:27;;;;;;;1.23;0.20;;;20.90;39.90;;;;;;5012880;28;20037;-76
2022/05/19 08:52:12;;;;;;;1.70;0.32;;;21.10;41.80;;;;;;5017728;28;20079;-73
2022/05/19 08:54:43;;;;;;;1.00;0.50;;;21.10;42.40;;;;;;5015488;28;20052;-75
2022/05/19 08:57:24;;;;;;;1.55;0.30;;;21.10;42.70;;;;;;5009576;28;22405;-75
2022/05/19 09:00:11;;;;;;;1.83;0.40;;;21.00;41.10;;;;;;5004876;28;20056;-75
2022/05/19 09:02:54;;;;;;;1.85;0.40;;;21.00;43.00;;;;;;5022105;28;20057;-74
2022/05/19 09:05:37;;;;;;;2.15;0.47;;;21.10;42.30;;;;;;5001710;28;20077;-74
2022/05/19 09:08:15;;;;;;;4.00;0.50;;;21.00;41.60;;;;;;5006752;28;20053;-75
2022/05/19 09:11:05;;;;;;;179.43;20.33;;;21.10;44.10;;;;;;5002517;28;20041;-72
2022/05/19 09:14:05;;;;;;;4.75;0.70;;;21.30;43.20;;;;;;5001284;28;20049;-73
2022/05/19 09:16:38;;;;;;;8.88;0.75;;;21.40;44.90;;;;;;5013599;28;20165;-73
2022/05/19 09:19:25;;;;;;;4.95;0.30;;;21.30;42.60;;;;;;5016624;28;22459;-73
2022/05/19 09:22:00;;;;;;;1.42;0.50;;;21.20;41.90;;;;;;5000059;28;20124;-73
2022/05/19 09:24:27;;;;;;;2.50;0.60;;;21.30;43.00;;;;;;5005667;28;20045;-72
2022/05/19 09:26:57;;;;;;;1.63;0.20;;;21.40;43.80;;;;;;5016560;28;20102;-73
2022/05/19 09:29:39;;;;;;;2.25;0.30;;;21.50;42.60;;;;;;5004712;28;23225;-73
2022/05/19 09:32:13;;;;;;;3.97;0.40;;;21.40;40.40;;;;;;5007993;28;21118;-73
2022/05/19 09:34:47;;;;;;;2.35;0.30;;;21.50;44.60;;;;;;5002418;28;22544;-74
2022/05/19 09:37:35;;;;;;;2.40;0.20;;;21.60;44.10;;;;;;5004391;28;20636;-73
2022/05/19 09:40:12;;;;;;;4.68;0.20;;;21.40;46.80;;;;;;5038539;28;20959;-73
2022/05/19 09:43:14;;;;;;;2.38;0.30;;;21.70;43.90;;;;;;5004429;28;20053;-74
2022/05/19 09:45:44;;;;;;;2.25;0.30;;;21.70;41.50;;;;;;5006309;28;20045;-73
2022/05/19 09:48:13;;;;;;;3.28;0.30;;;21.60;43.80;;;;;;5004795;28;22453;-73
2022/05/19 09:50:46;;;;;;;2.65;0.50;;;21.70;42.60;;;;;;5004439;28;20049;-73
2022/05/19 09:53:25;;;;;;;6.38;0.70;;;21.50;38.80;;;;;;4996172;28;20071;-72
2022/05/19 09:56:04;;;;;;;2.38;0.20;;;21.50;44.30;;;;;;5007378;28;20171;-72
2022/05/19 09:58:34;;;;;;;2.05;0.40;;;21.60;42.40;;;;;;5003032;28;20881;-73
2022/05/19 10:01:13;;;;;;;2.92;0.20;;;21.70;44.50;;;;;;5020304;28;20563;-73
2022/05/19 10:03:50;;;;;;;4.05;0.20;;;21.80;44.90;;;;;;5001616;28;20060;-72
2022/05/19 10:06:21;;;;;;;2.92;0.38;;;21.80;45.20;;;;;;5005979;28;20076;-72
2022/05/19 10:08:59;;;;;;;1.23;0.20;;;21.90;42.70;;;;;;5007457;28;20053;-72
2022/05/19 10:11:30;;;;;;;2.85;0.30;;;21.60;41.30;;;;;;5003826;28;20186;-72
2022/05/19 10:14:03;;;;;;;4.22;0.30;;;21.60;41.80;;;;;;5016785;28;20052;-73
2022/05/19 10:16:48;;;;;;;11.30;0.93;;;21.70;43.90;;;;;;5006091;28;20050;-73
2022/05/19 10:19:30;;;;;;;1.35;0.30;;;21.80;43.70;;;;;;5007644;28;20049;-73
2022/05/19 10:22:19;;;;;;;1.38;0.30;;;21.90;44.30;;;;;;5005332;28;20148;-74
2022/05/19 10:25:18;;;;;;;1.42;0.20;;;21.90;45.00;;;;;;5037755;28;22403;-72
2022/05/19 10:31:30;;;;;;;3.38;0.25;;;21.90;42.10;;;;;;5006826;28;20071;-73
2022/05/19 10:34:36;;;;;;;5.82;0.88;;;22.00;45.60;;;;;;5008772;28;20529;-73
2022/05/19 10:37:25;;;;;;;2.45;0.20;;;22.10;42.90;;;;;;4926006;28;20055;-74
2022/05/19 10:40:19;;;;;;;5.65;0.22;;;22.10;40.80;;;;;;4908557;28;20054;-73
2022/05/19 10:43:02;;;;;;;2.55;0.15;;;21.80;39.00;;;;;;4989743;28;20061;-75
2022/05/19 10:45:35;;;;;;;3.60;0.20;;;21.70;41.30;;;;;;5018672;28;20175;-73
2022/05/19 10:48:54;;;;;;;2.05;0.20;;;21.80;40.80;;;;;;5003672;28;20242;-73
2022/05/19 10:51:34;;;;;;;2.15;0.20;;;21.90;43.30;;;;;;4965874;28;20061;-72
2022/05/19 10:54:23;;;;;;;1.85;0.20;;;22.20;43.40;;;;;;5005470;28;20044;-72
2022/05/19 10:56:56;;;;;;;5.28;0.20;;;22.20;41.10;;;;;;5010179;28;22392;-73
2022/05/19 11:00:01;;;;;;;7.75;0.20;;;22.20;40.30;;;;;;5009317;28;20064;-73
2022/05/19 11:02:51;;;;;;;4.03;0.55;;;22.20;43.10;;;;;;5043819;28;20841;-75
2022/05/19 11:05:39;;;;;;;2.90;0.20;;;22.30;41.40;;;;;;5017423;28;20153;-73
2022/05/19 11:08:29;;;;;;;4.18;0.47;;;22.20;39.70;;;;;;5013047;28;20057;-73
2022/05/19 11:11:23;;;;;;;1.85;0.10;;;22.20;37.90;;;;;;5011502;28;20150;-74
2022/05/19 11:14:25;;;;;;;4.65;0.47;;;22.10;38.30;;;;;;4988698;28;20075;-74
2022/05/19 11:17:33;;;;;;;0.90;0.10;;;22.20;39.70;;;;;;4987255;28;20198;-73
2022/05/19 11:20:14;;;;;;;1.45;0.17;;;22.30;41.20;;;;;;5005646;28;20069;-73
2022/05/19 11:22:42;;;;;;;2.65;0.35;;;22.40;39.50;;;;;;5015388;28;20049;-74
2022/05/19 11:28:34;;;;;;;0.98;0.10;;;22.40;41.50;;;;;;5007619;28;20418;-73
2022/05/19 11:31:16;;;;;;;3.08;0.13;;;22.50;39.90;;;;;;5008420;28;20052;-74
2022/05/19 11:33:50;;;;;;;2.25;0.20;;;22.40;38.10;;;;;;5013237;28;20060;-72
2022/05/19 11:36:27;;;;;;;2.70;0.20;;;22.40;40.40;;;;;;5046970;28;22585;-75
2022/05/19 11:39:11;;;;;;;3.28;0.10;;;22.50;40.60;;;;;;5016000;28;20115;-73
2022/05/19 11:41:39;;;;;;;0.82;0.20;;;22.50;39.90;;;;;;5042439;28;20171;-76
2022/05/19 11:44:14;;;;;;;1.27;0.10;;;22.50;36.60;;;;;;5013196;28;20053;-74
2022/05/19 11:46:52;;;;;;;0.70;0.10;;;22.50;38.50;;;;;;5015510;28;20255;-74
2022/05/19 11:55:47;;;;;;;4.43;0.40;;;22.80;38.40;;;;;;4960342;28;20068;-74
2022/05/19 11:58:20;;;;;;;1.95;0.22;;;22.70;39.20;;;;;;5049303;28;20048;-73
2022/05/19 12:01:02;;;;;;;2.70;0.10;;;22.70;39.00;;;;;;5006839;28;20764;-74
2022/05/19 12:03:48;;;;;;;3.83;0.17;;;22.70;38.50;;;;;;5031869;28;20052;-73
2022/05/19 12:06:29;;;;;;;2.05;0.30;;;22.60;37.80;;;;;;5018969;28;20167;-74
2022/05/19 12:09:07;;;;;;;3.17;0.20;;;22.60;39.00;;;;;;5021362;28;20045;-75
2022/05/19 12:11:40;;;;;;;0.47;0.10;;;22.50;37.40;;;;;;5009861;28;20045;-73
2022/05/19 12:14:17;;;;;;;0.88;0.20;;;22.70;38.40;;;;;;5014545;28;22376;-74
2022/05/19 12:17:09;;;;;;;3.47;0.10;;;22.70;38.80;;;;;;5035820;28;20482;-74
2022/05/19 12:19:47;;;;;;;2.15;0.17;;;22.80;40.40;;;;;;5029819;28;20080;-74
2022/05/19 12:22:24;;;;;;;2.35;0.10;;;22.80;37.90;;;;;;5020754;28;20053;-74
2022/05/19 12:25:03;;;;;;;4.80;0.20;;;22.80;38.60;;;;;;5036572;28;20056;-74
2022/05/19 12:27:37;;;;;;;0.77;0.17;;;22.80;40.80;;;;;;5012861;28;20056;-74
2022/05/19 12:33:31;;;;;;;2.90;0.52;;;22.90;38.80;;;;;;5046820;28;20511;-73
2022/05/19 12:36:09;;;;;;;1.58;0.30;;;22.90;39.30;;;;;;5013995;28;21063;-74
2022/05/19 12:38:44;;;;;;;3.53;0.20;;;22.90;38.10;;;;;;5017829;28;20303;-74
2022/05/19 12:41:23;;;;;;;5.35;0.20;;;22.90;38.70;;;;;;5021373;28;20064;-74
2022/05/19 12:43:54;;;;;;;2.88;0.20;;;22.90;38.30;;;;;;5032409;28;22499;-73
2022/05/19 12:46:33;;;;;;;1.02;0.20;;;22.80;39.90;;;;;;5014380;28;20060;-75
2022/05/19 12:49:17;;;;;;;3.15;0.20;;;22.90;39.00;;;;;;5016867;28;20049;-74
2022/05/19 12:51:50;;;;;;;1.33;0.10;;;22.80;39.40;;;;;;4999798;28;20049;-75
2022/05/19 12:54:19;;;;;;;1.92;0.20;;;22.90;39.10;;;;;;5019331;28;20504;-74
2022/05/19 12:56:50;;;;;;;0.50;0.17;;;23.00;39.60;;;;;;5020764;28;20053;-75
2022/05/19 12:59:23;;;;;;;2.90;0.20;;;23.10;38.40;;;;;;5018869;28;20053;-73
2022/05/19 13:01:57;;;;;;;2.05;0.20;;;23.00;38.70;;;;;;5022571;28;20049;-75
2022/05/19 13:04:31;;;;;;;2.60;0.20;;;23.00;39.30;;;;;;5021263;28;20057;-75
2022/05/19 13:07:15;;;;;;;0.75;0.20;;;23.00;38.20;;;;;;5020096;28;20143;-74
2022/05/19 13:09:56;;;;;;;1.00;0.20;;;23.00;37.70;;;;;;5020691;28;20084;-74
2022/05/19 13:12:27;;;;;;;5.63;0.10;;;23.10;39.20;;;;;;5027269;28;20062;-74
2022/05/19 13:14:58;;;;;;;0.70;0.10;;;23.20;40.40;;;;;;5038892;28;20308;-73
2022/05/19 13:17:49;;;;;;;1.23;0.10;;;23.10;38.50;;;;;;5042081;28;20427;-74
2022/05/19 13:20:24;;;;;;;2.50;0.22;;;23.20;39.90;;;;;;5041720;28;20080;-74
2022/05/19 13:23:19;;;;;;;1.05;0.15;;;23.20;37.80;;;;;;5016288;28;20048;-74
2022/05/19 13:25:50;;;;;;;3.22;0.20;;;23.20;37.70;;;;;;5024638;28;21921;-73
2022/05/19 13:31:18;;;;;;;0.95;0.25;;;23.20;37.40;;;;;;5018281;28;22629;-74
2022/05/19 13:33:49;;;;;;;2.95;0.30;;;23.30;36.40;;;;;;5025242;28;20045;-75
2022/05/19 13:36:33;;;;;;;4.57;0.20;;;23.20;38.30;;;;;;5024602;28;20048;-74
2022/05/19 13:39:13;;;;;;;0.93;0.28;;;23.30;40.20;;;;;;5041163;28;20053;-74
2022/05/19 13:41:57;;;;;;;0.40;0.17;;;23.40;38.40;;;;;;5005772;28;20057;-74
2022/05/19 13:44:36;;;;;;;0.75;0.20;;;23.40;37.60;;;;;;5016070;28;20068;-76